createdAt,value
2017-02-14T00:00:23.713Z,1030.26
2017-02-14T00:01:36.823Z,1030.32
2017-02-14T00:02:49.860Z,1030.27
2017-02-14T00:04:03.007Z,1030.31
2017-02-14T00:05:16.120Z,1030.28
2017-02-14T00:06:29.223Z,1030.33
2017-02-14T00:07:42.318Z,1030.31
2017-02-14T00:08:54.985Z,1030.28
2017-02-14T00:10:08.045Z,1030.29
2017-02-14T00:11:20.714Z,1030.3
2017-02-14T00:12:33.838Z,1030.3
2017-02-14T00:13:47.305Z,1030.27
2017-02-14T00:15:00.395Z,1030.27
2017-02-14T00:16:12.315Z,1030.25
2017-02-14T00:17:25.043Z,1030.28
2017-02-14T00:18:38.124Z,1030.28
2017-02-14T00:19:51.159Z,1030.28
2017-02-14T00:21:04.224Z,1030.29
2017-02-14T00:22:16.895Z,1030.29
2017-02-14T00:23:29.991Z,1030.28
2017-02-14T00:24:43.062Z,1030.3
2017-02-14T00:25:56.107Z,1030.3
2017-02-14T00:27:08.833Z,1030.27
2017-02-14T00:28:21.100Z,1030.21
2017-02-14T00:29:34.176Z,1030.23
2017-02-14T00:30:47.309Z,1030.24
2017-02-14T00:32:00.039Z,1030.23
2017-02-14T00:33:13.109Z,1030.19
2017-02-14T00:34:25.778Z,1030.17
2017-02-14T00:35:39.176Z,1030.16
2017-02-14T00:36:52.295Z,1030.12
2017-02-14T00:38:04.998Z,1030.14
2017-02-14T00:39:17.294Z,1030.17
2017-02-14T00:40:30.365Z,1030.18
2017-02-14T00:41:43.488Z,1030.19
2017-02-14T00:42:56.631Z,1030.22
2017-02-14T00:44:09.739Z,1030.22
2017-02-14T00:45:22.418Z,1030.21
2017-02-14T00:46:35.506Z,1030.16
2017-02-14T00:47:48.609Z,1030.2
2017-02-14T00:49:01.673Z,1030.21
2017-02-14T00:50:14.717Z,1030.21
2017-02-14T00:51:27.020Z,1030.29
2017-02-14T00:52:40.124Z,1030.21
2017-02-14T00:53:53.244Z,1030.26
2017-02-14T00:55:06.283Z,1030.26
2017-02-14T00:56:19.430Z,1030.26
2017-02-14T00:57:32.504Z,1030.28
2017-02-14T00:58:45.613Z,1030.24
2017-02-14T00:59:58.713Z,1030.27
2017-02-14T01:01:11.014Z,1030.28
2017-02-14T01:02:24.167Z,1030.29
2017-02-14T01:03:37.223Z,1030.26
2017-02-14T01:04:50.325Z,1030.24
2017-02-14T01:06:03.054Z,1030.2
2017-02-14T01:07:16.124Z,1030.18
2017-02-14T01:08:29.246Z,1030.2
2017-02-14T01:09:42.394Z,1030.14
2017-02-14T01:10:55.155Z,1030.17
2017-02-14T01:12:08.208Z,1030.16
2017-02-14T01:13:20.971Z,1030.22
2017-02-14T01:14:34.028Z,1030.21
2017-02-14T01:15:47.117Z,1030.22
2017-02-14T01:17:00.160Z,1030.25
2017-02-14T01:18:12.862Z,1030.23
2017-02-14T01:19:26.152Z,1030.28
2017-02-14T01:20:38.835Z,1030.28
2017-02-14T01:21:51.892Z,1030.28
2017-02-14T01:23:04.590Z,1030.29
2017-02-14T01:24:17.294Z,1030.28
2017-02-14T01:25:30.361Z,1030.29
2017-02-14T01:26:43.458Z,1030.27
2017-02-14T01:27:56.190Z,1030.26
2017-02-14T01:29:09.276Z,1030.29
2017-02-14T01:30:22.384Z,1030.26
2017-02-14T01:31:35.442Z,1030.23
2017-02-14T01:32:48.481Z,1030.24
2017-02-14T01:34:01.579Z,1030.19
2017-02-14T01:35:14.697Z,1030.15
2017-02-14T01:36:27.744Z,1030.16
2017-02-14T01:37:40.847Z,1030.11
2017-02-14T01:38:53.911Z,1030.09
2017-02-14T01:40:06.998Z,1030.08
2017-02-14T01:41:19.679Z,1030
2017-02-14T01:42:32.725Z,1030.03
2017-02-14T01:43:45.828Z,1030.03
2017-02-14T01:44:58.933Z,1030.03
2017-02-14T01:46:12.046Z,1030.03
2017-02-14T01:47:25.380Z,1029.98
2017-02-14T01:48:38.498Z,1029.97
2017-02-14T01:49:51.550Z,1029.96
2017-02-14T01:51:04.643Z,1029.98
2017-02-14T01:52:17.789Z,1029.93
2017-02-14T01:53:30.870Z,1029.93
2017-02-14T01:54:43.980Z,1029.91
2017-02-14T01:55:56.702Z,1029.91
2017-02-14T01:57:09.022Z,1029.93
2017-02-14T01:58:22.076Z,1029.94
2017-02-14T01:59:35.149Z,1029.87
2017-02-14T02:00:48.262Z,1029.85
2017-02-14T02:02:01.366Z,1029.84
2017-02-14T02:03:14.078Z,1029.85
2017-02-14T02:04:27.173Z,1029.85
2017-02-14T02:05:40.295Z,1029.85
2017-02-14T02:06:53.382Z,1029.85
2017-02-14T02:08:06.662Z,1029.82
2017-02-14T02:09:19.356Z,1029.83
2017-02-14T02:10:32.071Z,1029.86
2017-02-14T02:11:44.748Z,1029.89
2017-02-14T02:12:57.863Z,1029.87
2017-02-14T02:14:10.959Z,1029.87
2017-02-14T02:15:24.037Z,1029.83
2017-02-14T02:16:37.084Z,1029.83
2017-02-14T02:17:50.177Z,1029.84
2017-02-14T02:19:03.251Z,1029.84
2017-02-14T02:20:15.977Z,1029.81
2017-02-14T02:21:29.077Z,1029.8
2017-02-14T02:22:42.211Z,1029.76
2017-02-14T02:23:55.350Z,1029.81
2017-02-14T02:25:08.446Z,1029.77
2017-02-14T02:26:21.534Z,1029.7
2017-02-14T02:27:34.621Z,1029.7
2017-02-14T02:28:47.690Z,1029.71
2017-02-14T02:30:00.819Z,1029.71
2017-02-14T02:31:13.537Z,1029.76
2017-02-14T02:32:26.678Z,1029.72
2017-02-14T02:33:39.778Z,1029.69
2017-02-14T02:34:52.888Z,1029.75
2017-02-14T02:36:05.935Z,1029.74
2017-02-14T02:37:19.037Z,1029.73
2017-02-14T02:38:32.113Z,1029.75
2017-02-14T02:39:44.807Z,1029.75
2017-02-14T02:40:58.152Z,1029.76
2017-02-14T02:42:10.839Z,1029.73
2017-02-14T02:43:23.948Z,1029.69
2017-02-14T02:44:37.012Z,1029.73
2017-02-14T02:45:50.076Z,1029.77
2017-02-14T02:47:03.156Z,1029.74
2017-02-14T02:48:16.218Z,1029.74
2017-02-14T02:49:29.339Z,1029.74
2017-02-14T02:50:42.401Z,1029.67
2017-02-14T02:51:55.498Z,1029.75
2017-02-14T02:53:08.609Z,1029.72
2017-02-14T02:54:21.299Z,1029.72
2017-02-14T02:55:34.393Z,1029.7
2017-02-14T02:56:47.427Z,1029.71
2017-02-14T02:58:00.450Z,1029.7
2017-02-14T02:59:13.570Z,1029.69
2017-02-14T03:00:26.294Z,1029.74
2017-02-14T03:01:39.398Z,1029.77
2017-02-14T03:02:52.514Z,1029.74
2017-02-14T03:04:05.628Z,1029.77
2017-02-14T03:05:18.749Z,1029.78
2017-02-14T03:06:31.870Z,1029.76
2017-02-14T03:07:44.960Z,1029.77
2017-02-14T03:08:58.023Z,1029.77
2017-02-14T03:10:11.076Z,1029.75
2017-02-14T03:11:23.796Z,1029.75
2017-02-14T03:12:36.498Z,1029.76
2017-02-14T03:13:49.196Z,1029.75
2017-02-14T03:15:02.302Z,1029.75
2017-02-14T03:16:14.986Z,1029.78
2017-02-14T03:17:28.022Z,1029.79
2017-02-14T03:18:41.139Z,1029.8
2017-02-14T03:19:54.245Z,1029.84
2017-02-14T03:21:07.288Z,1029.79
2017-02-14T03:22:20.369Z,1029.8
2017-02-14T03:23:33.461Z,1029.73
2017-02-14T03:24:46.558Z,1029.75
2017-02-14T03:25:59.628Z,1029.78
2017-02-14T03:27:12.685Z,1029.82
2017-02-14T03:28:25.744Z,1029.76
2017-02-14T03:29:38.816Z,1029.72
2017-02-14T03:30:51.897Z,1029.72
2017-02-14T03:32:05.018Z,1029.7
2017-02-14T03:33:17.702Z,1029.65
2017-02-14T03:34:30.024Z,1029.64
2017-02-14T03:35:42.705Z,1029.64
2017-02-14T03:36:55.410Z,1029.63
2017-02-14T03:38:08.107Z,1029.61
2017-02-14T03:39:21.183Z,1029.6
2017-02-14T03:40:33.877Z,1029.55
2017-02-14T03:41:46.948Z,1029.54
2017-02-14T03:43:00.057Z,1029.52
2017-02-14T03:44:12.734Z,1029.48
2017-02-14T03:45:25.831Z,1029.53
2017-02-14T03:46:38.897Z,1029.49
2017-02-14T03:47:52.023Z,1029.48
2017-02-14T03:49:05.076Z,1029.48
2017-02-14T03:50:17.771Z,1029.55
2017-02-14T03:51:31.115Z,1029.52
2017-02-14T03:52:44.211Z,1029.53
2017-02-14T03:53:57.369Z,1029.53
2017-02-14T03:55:10.097Z,1029.57
2017-02-14T03:56:23.192Z,1029.55
2017-02-14T03:57:35.506Z,1029.55
2017-02-14T03:58:48.591Z,1029.6
2017-02-14T04:00:01.691Z,1029.56
2017-02-14T04:01:14.788Z,1029.6
2017-02-14T04:02:27.828Z,1029.6
2017-02-14T04:03:40.944Z,1029.57
2017-02-14T04:04:54.032Z,1029.56
2017-02-14T04:06:07.161Z,1029.5
2017-02-14T04:07:20.263Z,1029.52
2017-02-14T04:08:32.957Z,1029.49
2017-02-14T04:09:45.656Z,1029.51
2017-02-14T04:10:58.433Z,1029.51
2017-02-14T04:12:11.599Z,1029.49
2017-02-14T04:13:24.290Z,1029.5
2017-02-14T04:14:37.380Z,1029.45
2017-02-14T04:15:50.109Z,1029.38
2017-02-14T04:17:03.204Z,1029.36
2017-02-14T04:18:16.337Z,1029.37
2017-02-14T04:19:29.392Z,1029.28
2017-02-14T04:20:42.465Z,1029.33
2017-02-14T04:21:55.555Z,1029.3
2017-02-14T04:23:07.877Z,1029.34
2017-02-14T04:24:20.973Z,1029.33
2017-02-14T04:25:34.096Z,1029.36
2017-02-14T04:26:47.160Z,1029.38
2017-02-14T04:28:00.259Z,1029.44
2017-02-14T04:29:12.931Z,1029.42
2017-02-14T04:30:25.652Z,1029.44
2017-02-14T04:31:38.723Z,1029.43
2017-02-14T04:32:51.788Z,1029.38
2017-02-14T04:34:04.888Z,1029.41
2017-02-14T04:35:17.212Z,1029.42
2017-02-14T04:36:30.301Z,1029.48
2017-02-14T04:37:43.355Z,1029.49
2017-02-14T04:38:56.495Z,1029.52
2017-02-14T04:40:09.576Z,1029.58
2017-02-14T04:41:22.668Z,1029.56
2017-02-14T04:42:35.368Z,1029.55
2017-02-14T04:43:48.439Z,1029.53
2017-02-14T04:45:01.510Z,1029.58
2017-02-14T04:46:14.622Z,1029.52
2017-02-14T04:47:27.695Z,1029.56
2017-02-14T04:48:40.821Z,1029.56
2017-02-14T04:49:53.881Z,1029.58
2017-02-14T04:51:06.583Z,1029.57
2017-02-14T04:52:19.657Z,1029.54
2017-02-14T04:53:32.717Z,1029.54
2017-02-14T04:54:45.776Z,1029.56
2017-02-14T04:55:58.848Z,1029.58
2017-02-14T04:57:11.968Z,1029.61
2017-02-14T04:58:24.676Z,1029.63
2017-02-14T04:59:37.787Z,1029.65
2017-02-14T05:00:50.896Z,1029.62
2017-02-14T05:02:03.927Z,1029.6
2017-02-14T05:03:16.661Z,1029.55
2017-02-14T05:04:29.718Z,1029.51
2017-02-14T05:05:42.434Z,1029.56
2017-02-14T05:06:55.531Z,1029.62
2017-02-14T05:08:08.576Z,1029.76
2017-02-14T05:09:21.255Z,1029.7
2017-02-14T05:10:34.386Z,1029.69
2017-02-14T05:11:47.094Z,1029.72
2017-02-14T05:13:00.216Z,1029.69
2017-02-14T05:14:12.886Z,1029.71
2017-02-14T05:15:25.982Z,1029.66
2017-02-14T05:16:39.034Z,1029.7
2017-02-14T05:17:52.167Z,1029.68
2017-02-14T05:19:05.258Z,1029.6
2017-02-14T05:20:18.315Z,1029.57
2017-02-14T05:21:31.462Z,1029.55
2017-02-14T05:22:44.577Z,1029.57
2017-02-14T05:23:57.678Z,1029.57
2017-02-14T05:25:10.718Z,1029.65
2017-02-14T05:26:23.817Z,1029.67
2017-02-14T05:27:36.502Z,1029.62
2017-02-14T05:28:49.636Z,1029.59
2017-02-14T05:30:01.927Z,1029.63
2017-02-14T05:31:14.629Z,1029.66
2017-02-14T05:32:27.724Z,1029.65
2017-02-14T05:33:40.789Z,1029.68
2017-02-14T05:34:53.467Z,1029.67
2017-02-14T05:36:06.164Z,1029.72
2017-02-14T05:37:19.236Z,1029.72
2017-02-14T05:38:32.304Z,1029.72
2017-02-14T05:39:45.437Z,1029.7
2017-02-14T05:40:58.188Z,1029.7
2017-02-14T05:42:11.310Z,1029.71
2017-02-14T05:43:24.405Z,1029.72
2017-02-14T05:44:37.495Z,1029.74
2017-02-14T05:45:50.197Z,1029.74
2017-02-14T05:47:02.902Z,1029.77
2017-02-14T05:48:15.963Z,1029.74
2017-02-14T05:49:28.703Z,1029.74
2017-02-14T05:50:41.798Z,1029.76
2017-02-14T05:51:54.906Z,1029.74
2017-02-14T05:53:07.954Z,1029.74
2017-02-14T05:54:20.276Z,1029.71
2017-02-14T05:55:32.990Z,1029.77
2017-02-14T05:56:46.074Z,1029.76
2017-02-14T05:57:59.232Z,1029.75
2017-02-14T05:59:12.317Z,1029.77
2017-02-14T06:00:25.380Z,1029.74
2017-02-14T06:01:38.387Z,1029.74
2017-02-14T06:02:51.497Z,1029.77
2017-02-14T06:04:04.585Z,1029.8
2017-02-14T06:05:17.663Z,1029.86
2017-02-14T06:06:30.396Z,1029.83
2017-02-14T06:07:43.524Z,1029.87
2017-02-14T06:08:56.595Z,1029.88
2017-02-14T06:10:09.707Z,1029.9
2017-02-14T06:11:22.005Z,1029.96
2017-02-14T06:12:35.132Z,1029.97
2017-02-14T06:13:48.197Z,1029.95
2017-02-14T06:15:01.216Z,1029.95
2017-02-14T06:16:13.875Z,1029.92
2017-02-14T06:17:26.590Z,1030.02
2017-02-14T06:18:39.231Z,1029.93
2017-02-14T06:19:52.307Z,1029.98
2017-02-14T06:21:05.410Z,1030.04
2017-02-14T06:22:18.499Z,1030.02
2017-02-14T06:23:31.587Z,1029.99
2017-02-14T06:24:44.641Z,1030.02
2017-02-14T06:25:57.699Z,1030.01
2017-02-14T06:27:10.440Z,1030
2017-02-14T06:28:23.553Z,1030.02
2017-02-14T06:29:36.259Z,1030.07
2017-02-14T06:30:49.346Z,1030.1
2017-02-14T06:32:02.096Z,1030.11
2017-02-14T06:33:14.399Z,1030.11
2017-02-14T06:34:27.507Z,1030.18
2017-02-14T06:35:40.612Z,1030.13
2017-02-14T06:36:53.725Z,1030.18
2017-02-14T06:38:06.774Z,1030.2
2017-02-14T06:39:19.853Z,1030.28
2017-02-14T06:40:32.963Z,1030.3
2017-02-14T06:41:46.066Z,1030.27
2017-02-14T06:42:59.187Z,1030.27
2017-02-14T06:44:12.247Z,1030.3
2017-02-14T06:45:25.606Z,1030.27
2017-02-14T06:46:38.317Z,1030.26
2017-02-14T06:47:51.398Z,1030.31
2017-02-14T06:49:04.452Z,1030.29
2017-02-14T06:50:17.536Z,1030.34
2017-02-14T06:51:30.650Z,1030.33
2017-02-14T06:52:43.703Z,1030.34
2017-02-14T06:53:56.751Z,1030.41
2017-02-14T06:55:09.838Z,1030.4
2017-02-14T06:56:22.584Z,1030.37
2017-02-14T06:57:35.255Z,1030.36
2017-02-14T06:58:47.550Z,1030.4
2017-02-14T07:00:00.646Z,1030.37
2017-02-14T07:01:12.927Z,1030.37
2017-02-14T07:02:26.070Z,1030.4
2017-02-14T07:03:38.785Z,1030.4
2017-02-14T07:04:51.848Z,1030.41
2017-02-14T07:06:04.943Z,1030.39
2017-02-14T07:07:17.990Z,1030.38
2017-02-14T07:08:31.075Z,1030.36
2017-02-14T07:09:44.166Z,1030.38
2017-02-14T07:10:57.293Z,1030.41
2017-02-14T07:12:10.386Z,1030.39
2017-02-14T07:13:23.482Z,1030.41
2017-02-14T07:14:36.590Z,1030.44
2017-02-14T07:15:49.661Z,1030.41
2017-02-14T07:17:02.746Z,1030.46
2017-02-14T07:18:15.878Z,1030.47
2017-02-14T07:19:28.912Z,1030.52
2017-02-14T07:20:41.993Z,1030.5
2017-02-14T07:21:55.099Z,1030.54
2017-02-14T07:23:08.395Z,1030.58
2017-02-14T07:24:21.113Z,1030.59
2017-02-14T07:25:34.192Z,1030.57
2017-02-14T07:26:47.280Z,1030.6
2017-02-14T07:28:00.382Z,1030.64
2017-02-14T07:29:12.347Z,1030.67
2017-02-14T07:30:25.063Z,1030.69
2017-02-14T07:31:38.163Z,1030.67
2017-02-14T07:32:51.237Z,1030.67
2017-02-14T07:34:04.313Z,1030.69
2017-02-14T07:35:17.045Z,1030.72
2017-02-14T07:36:30.105Z,1030.72
2017-02-14T07:37:43.161Z,1030.67
2017-02-14T07:38:56.214Z,1030.7
2017-02-14T07:40:09.261Z,1030.76
2017-02-14T07:41:21.958Z,1030.77
2017-02-14T07:42:35.003Z,1030.76
2017-02-14T07:43:48.092Z,1030.79
2017-02-14T07:45:01.437Z,1030.83
2017-02-14T07:46:13.348Z,1030.81
2017-02-14T07:47:26.440Z,1030.86
2017-02-14T07:48:39.513Z,1030.82
2017-02-14T07:49:52.578Z,1030.79
2017-02-14T07:51:05.704Z,1030.78
2017-02-14T07:52:18.406Z,1030.77
2017-02-14T07:53:31.496Z,1030.77
2017-02-14T07:54:44.592Z,1030.74
2017-02-14T07:55:57.700Z,1030.72
2017-02-14T07:57:10.441Z,1030.72
2017-02-14T07:58:23.509Z,1030.71
2017-02-14T07:59:36.575Z,1030.66
2017-02-14T08:00:49.683Z,1030.72
2017-02-14T08:02:02.768Z,1030.71
2017-02-14T08:03:15.831Z,1030.73
2017-02-14T08:04:28.930Z,1030.74
2017-02-14T08:05:42.031Z,1030.81
2017-02-14T08:06:55.387Z,1030.75
2017-02-14T08:08:07.699Z,1030.77
2017-02-14T08:09:20.786Z,1030.75
2017-02-14T08:10:33.890Z,1030.71
2017-02-14T08:11:46.610Z,1030.7
2017-02-14T08:12:59.330Z,1030.66
2017-02-14T08:14:12.437Z,1030.67
2017-02-14T08:15:25.495Z,1030.73
2017-02-14T08:16:38.247Z,1030.73
2017-02-14T08:17:51.350Z,1030.76
2017-02-14T08:19:04.490Z,1030.77
2017-02-14T08:20:17.575Z,1030.78
2017-02-14T08:21:30.622Z,1030.77
2017-02-14T08:22:42.922Z,1030.75
2017-02-14T08:23:56.047Z,1030.77
2017-02-14T08:25:09.125Z,1030.72
2017-02-14T08:26:22.178Z,1030.76
2017-02-14T08:27:35.226Z,1030.81
2017-02-14T08:28:48.289Z,1030.79
2017-02-14T08:30:01.322Z,1030.78
2017-02-14T08:31:14.380Z,1030.83
2017-02-14T08:32:27.433Z,1030.81
2017-02-14T08:33:40.510Z,1030.82
2017-02-14T08:34:53.652Z,1030.86
2017-02-14T08:36:05.950Z,1030.86
2017-02-14T08:37:18.273Z,1030.82
2017-02-14T08:38:30.989Z,1030.89
2017-02-14T08:39:44.319Z,1030.92
2017-02-14T08:40:57.411Z,1030.85
2017-02-14T08:42:10.499Z,1030.86
2017-02-14T08:43:23.654Z,1030.88
2017-02-14T08:44:36.784Z,1030.9
2017-02-14T08:45:49.814Z,1030.92
2017-02-14T08:47:02.508Z,1030.95
2017-02-14T08:48:15.582Z,1030.96
2017-02-14T08:49:28.663Z,1030.96
2017-02-14T08:50:41.344Z,1030.92
2017-02-14T08:51:53.644Z,1030.92
2017-02-14T08:53:06.797Z,1030.99
2017-02-14T08:54:19.859Z,1030.97
2017-02-14T08:55:32.532Z,1030.94
2017-02-14T08:56:44.841Z,1031
2017-02-14T08:57:57.507Z,1030.99
2017-02-14T08:59:10.592Z,1031.03
2017-02-14T09:00:23.689Z,1031.06
2017-02-14T09:01:36.794Z,1031.06
2017-02-14T09:02:49.513Z,1031.04
2017-02-14T09:04:02.632Z,1031.07
2017-02-14T09:05:15.747Z,1031.1
2017-02-14T09:06:28.848Z,1031.07
2017-02-14T09:07:41.896Z,1031.04
2017-02-14T09:08:55.017Z,1031.09
2017-02-14T09:10:08.104Z,1031.04
2017-02-14T09:11:21.252Z,1031.1
2017-02-14T09:12:34.296Z,1031.14
2017-02-14T09:13:47.367Z,1031.14
2017-02-14T09:15:00.472Z,1031.16
2017-02-14T09:16:13.532Z,1031.11
2017-02-14T09:17:26.658Z,1031.11
2017-02-14T09:18:39.744Z,1031.12
2017-02-14T09:19:52.897Z,1031.15
2017-02-14T09:21:05.968Z,1031.15
2017-02-14T09:22:18.294Z,1031.15
2017-02-14T09:23:31.383Z,1031.16
2017-02-14T09:24:44.486Z,1031.09
2017-02-14T09:25:57.608Z,1031.1
2017-02-14T09:27:10.340Z,1031.1
2017-02-14T09:28:23.420Z,1031.09
2017-02-14T09:29:36.489Z,1031.07
2017-02-14T09:30:49.552Z,1031.09
2017-02-14T09:32:02.623Z,1031.07
2017-02-14T09:33:15.300Z,1031.1
2017-02-14T09:34:28.046Z,1031.1
2017-02-14T09:35:41.120Z,1031.04
2017-02-14T09:36:54.196Z,1031.02
2017-02-14T09:38:07.265Z,1031.04
2017-02-14T09:39:19.180Z,1031.01
2017-02-14T09:40:31.935Z,1031.02
2017-02-14T09:41:45.054Z,1031.01
2017-02-14T09:42:58.137Z,1031.07
2017-02-14T09:44:11.207Z,1031.05
2017-02-14T09:45:23.917Z,1031.06
2017-02-14T09:46:37.014Z,1031.08
2017-02-14T09:47:50.106Z,1031.01
2017-02-14T09:49:03.217Z,1031.02
2017-02-14T09:50:15.948Z,1031.05
2017-02-14T09:51:29.023Z,1031.01
2017-02-14T09:52:42.103Z,1031.05
2017-02-14T09:53:55.256Z,1031.08
2017-02-14T09:55:07.953Z,1031.08
2017-02-14T09:56:21.029Z,1031.08
2017-02-14T09:57:34.112Z,1031.04
2017-02-14T09:58:47.189Z,1031.04
2017-02-14T10:00:00.267Z,1031.02
2017-02-14T10:01:12.587Z,1031.02
2017-02-14T10:02:25.253Z,1031.03
2017-02-14T10:03:37.954Z,1031.04
2017-02-14T10:04:50.668Z,1031.02
2017-02-14T10:06:03.771Z,1031.03
2017-02-14T10:07:16.518Z,1031.02
2017-02-14T10:08:29.633Z,1030.98
2017-02-14T10:09:42.333Z,1030.94
2017-02-14T10:10:54.980Z,1030.98
2017-02-14T10:12:08.021Z,1031
2017-02-14T10:13:21.094Z,1030.98
2017-02-14T10:14:34.167Z,1030.96
2017-02-14T10:15:47.234Z,1030.95
2017-02-14T10:16:59.931Z,1030.98
2017-02-14T10:18:12.856Z,1031
2017-02-14T10:19:25.969Z,1030.96
2017-02-14T10:20:39.034Z,1030.93
2017-02-14T10:21:51.738Z,1030.99
2017-02-14T10:23:04.783Z,1031
2017-02-14T10:24:17.482Z,1030.95
2017-02-14T10:25:30.153Z,1030.96
2017-02-14T10:26:43.271Z,1030.91
2017-02-14T10:27:56.384Z,1030.95
2017-02-14T10:29:09.116Z,1030.94
2017-02-14T10:30:21.826Z,1030.9
2017-02-14T10:31:34.886Z,1030.92
2017-02-14T10:32:48.006Z,1030.88
2017-02-14T10:34:01.122Z,1030.89
2017-02-14T10:35:14.217Z,1030.88
2017-02-14T10:36:27.293Z,1030.84
2017-02-14T10:37:40.377Z,1030.83
2017-02-14T10:38:53.505Z,1030.84
2017-02-14T10:40:06.567Z,1030.82
2017-02-14T10:41:19.227Z,1030.75
2017-02-14T10:42:31.886Z,1030.7
2017-02-14T10:43:44.598Z,1030.7
2017-02-14T10:44:57.270Z,1030.63
2017-02-14T10:46:10.361Z,1030.65
2017-02-14T10:47:23.444Z,1030.61
2017-02-14T10:48:36.128Z,1030.59
2017-02-14T10:49:49.215Z,1030.58
2017-02-14T10:51:02.344Z,1030.57
2017-02-14T10:52:15.462Z,1030.5
2017-02-14T10:53:28.511Z,1030.51
2017-02-14T10:54:41.588Z,1030.52
2017-02-14T10:55:54.666Z,1030.49
2017-02-14T10:57:07.704Z,1030.47
2017-02-14T10:58:20.788Z,1030.46
2017-02-14T10:59:33.892Z,1030.47
2017-02-14T11:00:46.612Z,1030.47
2017-02-14T11:01:59.701Z,1030.46
2017-02-14T11:03:12.409Z,1030.42
2017-02-14T11:04:24.742Z,1030.41
2017-02-14T11:05:37.847Z,1030.41
2017-02-14T11:06:50.946Z,1030.36
2017-02-14T11:08:04.065Z,1030.38
2017-02-14T11:09:17.132Z,1030.38
2017-02-14T11:10:30.279Z,1030.4
2017-02-14T11:11:42.979Z,1030.42
2017-02-14T11:12:56.071Z,1030.45
2017-02-14T11:14:09.164Z,1030.4
2017-02-14T11:15:21.874Z,1030.41
2017-02-14T11:16:34.561Z,1030.41
2017-02-14T11:17:47.654Z,1030.36
2017-02-14T11:19:00.768Z,1030.36
2017-02-14T11:20:13.446Z,1030.3
2017-02-14T11:21:26.561Z,1030.27
2017-02-14T11:22:39.643Z,1030.28
2017-02-14T11:23:52.803Z,1030.26
2017-02-14T11:25:05.928Z,1030.3
2017-02-14T11:26:19.017Z,1030.27
2017-02-14T11:27:32.065Z,1030.25
2017-02-14T11:28:45.136Z,1030.24
2017-02-14T11:29:58.237Z,1030.27
2017-02-14T11:31:10.956Z,1030.26
2017-02-14T11:32:24.005Z,1030.28
2017-02-14T11:33:36.726Z,1030.28
2017-02-14T11:34:49.839Z,1030.33
2017-02-14T11:36:02.588Z,1030.33
2017-02-14T11:37:15.290Z,1030.34
2017-02-14T11:38:28.415Z,1030.34
2017-02-14T11:39:41.530Z,1030.29
2017-02-14T11:40:54.201Z,1030.29
2017-02-14T11:42:07.291Z,1030.3
2017-02-14T11:43:20.393Z,1030.29
2017-02-14T11:44:33.089Z,1030.28
2017-02-14T11:45:46.171Z,1030.32
2017-02-14T11:46:58.855Z,1030.26
2017-02-14T11:48:11.962Z,1030.24
2017-02-14T11:49:25.065Z,1030.24
2017-02-14T11:50:37.769Z,1030.25
2017-02-14T11:51:50.858Z,1030.23
2017-02-14T11:53:03.961Z,1030.26
2017-02-14T11:54:17.049Z,1030.24
2017-02-14T11:55:30.095Z,1030.2
2017-02-14T11:56:43.209Z,1030.19
2017-02-14T11:57:55.975Z,1030.21
2017-02-14T11:59:08.684Z,1030.22
2017-02-14T12:00:21.712Z,1030.24
2017-02-14T12:01:34.429Z,1030.27
2017-02-14T12:02:46.737Z,1030.22
2017-02-14T12:03:59.490Z,1030.26
2017-02-14T12:05:12.643Z,1030.27
2017-02-14T12:06:25.767Z,1030.23
2017-02-14T12:07:38.903Z,1030.24
2017-02-14T12:08:51.984Z,1030.27
2017-02-14T12:10:05.071Z,1030.25
2017-02-14T12:11:17.798Z,1030.25
2017-02-14T12:12:30.916Z,1030.24
2017-02-14T12:13:43.977Z,1030.25
2017-02-14T12:14:57.079Z,1030.24
2017-02-14T12:16:10.175Z,1030.25
2017-02-14T12:17:23.302Z,1030.19
2017-02-14T12:18:36.367Z,1030.18
2017-02-14T12:19:49.510Z,1030.21
2017-02-14T12:21:02.634Z,1030.17
2017-02-14T12:22:15.304Z,1030.12
2017-02-14T12:23:28.431Z,1030.11
2017-02-14T12:24:41.595Z,1030.14
2017-02-14T12:25:54.691Z,1030.14
2017-02-14T12:27:07.044Z,1030.16
2017-02-14T12:28:19.714Z,1030.18
2017-02-14T12:29:32.854Z,1030.19
2017-02-14T12:30:45.950Z,1030.19
2017-02-14T12:31:58.671Z,1030.15
2017-02-14T12:33:11.749Z,1030.19
2017-02-14T12:34:24.839Z,1030.21
2017-02-14T12:35:37.508Z,1030.17
2017-02-14T12:36:50.211Z,1030.19
2017-02-14T12:38:03.331Z,1030.2
2017-02-14T12:39:16.670Z,1030.16
2017-02-14T12:40:29.794Z,1030.13
2017-02-14T12:41:42.438Z,1030.1
2017-02-14T12:42:55.515Z,1030.04
2017-02-14T12:44:08.230Z,1030.03
2017-02-14T12:45:21.276Z,1030.1
2017-02-14T12:46:34.324Z,1030.09
2017-02-14T12:47:47.010Z,1030.1
2017-02-14T12:49:00.141Z,1030.12
2017-02-14T12:50:12.888Z,1030.1
2017-02-14T12:51:25.992Z,1030.1
2017-02-14T12:52:39.084Z,1030.01
2017-02-14T12:53:52.202Z,1030.01
2017-02-14T12:55:05.311Z,1030.02
2017-02-14T12:56:18.015Z,1030.01
2017-02-14T12:57:31.116Z,1030.04
2017-02-14T12:58:43.780Z,1029.98
2017-02-14T12:59:56.076Z,1030
2017-02-14T13:01:09.128Z,1029.97
2017-02-14T13:02:22.193Z,1029.96
2017-02-14T13:03:35.320Z,1029.94
2017-02-14T13:04:48.091Z,1029.96
2017-02-14T13:06:00.798Z,1029.91
2017-02-14T13:07:13.901Z,1029.92
2017-02-14T13:08:26.975Z,1029.87
2017-02-14T13:09:40.076Z,1029.91
2017-02-14T13:10:52.370Z,1029.86
2017-02-14T13:12:05.510Z,1029.89
2017-02-14T13:13:18.623Z,1029.88
2017-02-14T13:14:31.352Z,1029.89
2017-02-14T13:15:44.472Z,1029.91
2017-02-14T13:16:57.555Z,1029.88
2017-02-14T13:18:10.666Z,1029.88
2017-02-14T13:19:23.402Z,1029.86
2017-02-14T13:20:36.487Z,1029.91
2017-02-14T13:21:49.581Z,1029.86
2017-02-14T13:23:02.698Z,1029.88
2017-02-14T13:24:15.774Z,1029.89
2017-02-14T13:25:28.891Z,1029.87
2017-02-14T13:26:41.960Z,1029.92
2017-02-14T13:27:55.005Z,1029.86
2017-02-14T13:29:08.056Z,1029.87
2017-02-14T13:30:20.748Z,1029.88
2017-02-14T13:31:33.825Z,1029.85
2017-02-14T13:32:46.916Z,1029.87
2017-02-14T13:34:00.034Z,1029.83
2017-02-14T13:35:13.129Z,1029.88
2017-02-14T13:36:26.233Z,1029.86
2017-02-14T13:37:39.348Z,1029.87
2017-02-14T13:38:52.473Z,1029.85
2017-02-14T13:40:04.824Z,1029.86
2017-02-14T13:41:17.560Z,1029.82
2017-02-14T13:42:30.640Z,1029.81
2017-02-14T13:43:43.805Z,1029.86
2017-02-14T13:44:56.523Z,1029.88
2017-02-14T13:46:09.625Z,1029.87
2017-02-14T13:47:22.721Z,1029.84
2017-02-14T13:48:35.465Z,1029.85
2017-02-14T13:49:47.782Z,1029.82
2017-02-14T13:51:00.853Z,1029.85
2017-02-14T13:52:13.540Z,1029.85
2017-02-14T13:53:26.672Z,1029.87
2017-02-14T13:54:39.767Z,1029.89
2017-02-14T13:55:52.847Z,1029.85
2017-02-14T13:57:05.964Z,1029.84
2017-02-14T13:58:19.084Z,1029.87
2017-02-14T13:59:31.774Z,1029.87
2017-02-14T14:00:44.411Z,1029.86
2017-02-14T14:01:57.147Z,1029.88
2017-02-14T14:03:10.264Z,1029.89
2017-02-14T14:04:23.433Z,1029.82
2017-02-14T14:05:36.507Z,1029.83
2017-02-14T14:06:49.230Z,1029.84
2017-02-14T14:08:01.981Z,1029.89
2017-02-14T14:09:14.723Z,1029.85
2017-02-14T14:10:27.865Z,1029.88
2017-02-14T14:11:40.539Z,1029.88
2017-02-14T14:12:53.609Z,1029.88
2017-02-14T14:14:06.262Z,1029.9
2017-02-14T14:15:19.380Z,1029.9
2017-02-14T14:16:32.474Z,1029.86
2017-02-14T14:17:45.540Z,1029.83
2017-02-14T14:18:58.664Z,1029.85
2017-02-14T14:20:11.385Z,1029.87
2017-02-14T14:21:24.503Z,1029.83
2017-02-14T14:22:37.602Z,1029.86
2017-02-14T14:23:50.310Z,1029.86
2017-02-14T14:25:03.413Z,1029.88
2017-02-14T14:26:16.126Z,1029.86
2017-02-14T14:27:29.223Z,1029.83
2017-02-14T14:28:42.325Z,1029.83
2017-02-14T14:29:55.447Z,1029.85
2017-02-14T14:31:08.567Z,1029.84
2017-02-14T14:32:21.694Z,1029.87
2017-02-14T14:33:34.386Z,1029.85
2017-02-14T14:34:47.511Z,1029.84
2017-02-14T14:36:00.200Z,1029.84
2017-02-14T14:37:12.864Z,1029.84
2017-02-14T14:38:25.919Z,1029.86
2017-02-14T14:39:38.639Z,1029.84
2017-02-14T14:40:51.751Z,1029.79
2017-02-14T14:42:04.887Z,1029.78
2017-02-14T14:43:17.601Z,1029.79
2017-02-14T14:44:30.739Z,1029.79
2017-02-14T14:45:43.824Z,1029.85